Terminal Aerodrome Forecast
Issued by NWS

Home | Current Version | Previous Version | Graphics & Text | Print | Product List | Glossary On
Versions: 1 2 3 4 5 6 7 8 9 10 11 12
000
FTUS43 KGRB 011700
TAFATW
TAF
KATW 011727Z 0118/0218 24008KT P6SM SCT100 BKN250
     FM012200 19007KT P6SM SCT070 BKN120
     FM021400 22010KT P6SM SCT050=

USA.gov is the U.S. government's official web portal to all federal, state and local government web resources and services.